sensor_id;sensor_type;location;lat;lon;timestamp;pressure;altitude;pressure_sealevel;temperature;humidity
52983;BME280;48698;45.736;13.926;2022-07-17T00:00:09;97807.69;;;22.80;100.00
52983;BME280;48698;45.736;13.926;2022-07-17T00:05:12;97800.63;;;22.60;100.00
52983;BME280;48698;45.736;13.926;2022-07-17T00:10:16;97883.13;;;23.02;100.00
52983;BME280;48698;45.736;13.926;2022-07-17T00:15:19;97938.50;;;23.17;100.00
52983;BME280;48698;45.736;13.926;2022-07-17T00:20:23;97974.56;;;23.18;100.00
52983;BME280;48698;45.736;13.926;2022-07-17T00:25:29;97957.09;;;23.03;100.00
52983;BME280;48698;45.736;13.926;2022-07-17T00:30:33;97909.75;;;22.70;100.00
52983;BME280;48698;45.736;13.926;2022-07-17T00:35:37;97981.69;;;23.19;100.00
52983;BME280;48698;45.736;13.926;2022-07-17T00:40:41;97834.19;;;22.21;100.00
52983;BME280;48698;45.736;13.926;2022-07-17T00:45:44;97870.63;;;22.36;100.00
52983;BME280;48698;45.736;13.926;2022-07-17T00:50:47;97942.34;;;22.78;100.00
52983;BME280;48698;45.736;13.926;2022-07-17T00:55:50;97978.53;;;22.87;100.00
52983;BME280;48698;45.736;13.926;2022-07-17T01:00:54;97885.59;;;22.21;100.00
52983;BME280;48698;45.736;13.926;2022-07-17T01:05:58;97824.00;;;21.57;100.00
52983;BME280;48698;45.736;13.926;2022-07-17T01:11:03;97958.38;;;22.33;100.00
52983;BME280;48698;45.736;13.926;2022-07-17T01:16:07;97951.09;;;22.14;100.00
52983;BME280;48698;45.736;13.926;2022-07-17T01:21:11;97803.78;;;21.13;100.00
52983;BME280;48698;45.736;13.926;2022-07-17T01:26:14;97784.84;;;21.03;100.00
52983;BME280;48698;45.736;13.926;2022-07-17T01:31:17;97939.97;;;21.79;100.00
52983;BME280;48698;45.736;13.926;2022-07-17T01:36:22;97951.19;;;21.75;100.00
52983;BME280;48698;45.736;13.926;2022-07-17T01:41:26;97988.38;;;22.01;100.00
52983;BME280;48698;45.736;13.926;2022-07-17T01:46:30;97895.97;;;21.58;100.00
52983;BME280;48698;45.736;13.926;2022-07-17T01:51:34;97835.66;;;20.89;100.00
52983;BME280;48698;45.736;13.926;2022-07-17T01:56:37;97976.63;;;21.53;100.00
52983;BME280;48698;45.736;13.926;2022-07-17T02:01:41;98011.38;;;21.67;100.00
52983;BME280;48698;45.736;13.926;2022-07-17T02:06:45;97829.53;;;20.47;100.00
52983;BME280;48698;45.736;13.926;2022-07-17T02:11:48;98007.19;;;21.53;100.00
52983;BME280;48698;45.736;13.926;2022-07-17T02:16:53;97821.97;;;20.31;100.00
52983;BME280;48698;45.736;13.926;2022-07-17T02:21:56;98010.69;;;21.44;100.00
52983;BME280;48698;45.736;13.926;2022-07-17T02:26:59;98018.38;;;21.39;100.00
52983;BME280;48698;45.736;13.926;2022-07-17T02:32:04;98015.94;;;21.36;100.00
52983;BME280;48698;45.736;13.926;2022-07-17T02:37:07;98019.50;;;21.37;100.00
52983;BME280;48698;45.736;13.926;2022-07-17T02:42:10;98012.56;;;21.44;100.00
52983;BME280;48698;45.736;13.926;2022-07-17T02:47:38;98027.25;;;21.51;100.00
52983;BME280;48698;45.736;13.926;2022-07-17T02:52:41;98012.97;;;21.39;100.00
52983;BME280;48698;45.736;13.926;2022-07-17T02:57:46;97937.31;;;20.99;100.00
52983;BME280;48698;45.736;13.926;2022-07-17T03:02:52;98013.16;;;21.47;100.00
52983;BME280;48698;45.736;13.926;2022-07-17T03:07:55;98034.06;;;21.55;100.00
52983;BME280;48698;45.736;13.926;2022-07-17T03:12:58;97949.03;;;20.89;100.00
52983;BME280;48698;45.736;13.926;2022-07-17T03:18:02;97837.97;;;20.33;100.00
52983;BME280;48698;45.736;13.926;2022-07-17T03:23:05;97902.63;;;20.65;100.00
52983;BME280;48698;45.736;13.926;2022-07-17T03:28:08;97998.00;;;21.26;100.00
52983;BME280;48698;45.736;13.926;2022-07-17T03:33:11;98036.63;;;21.47;100.00
52983;BME280;48698;45.736;13.926;2022-07-17T03:38:17;98035.25;;;21.32;100.00
52983;BME280;48698;45.736;13.926;2022-07-17T03:43:21;98033.72;;;21.39;100.00
52983;BME280;48698;45.736;13.926;2022-07-17T03:48:24;98051.97;;;21.46;100.00
52983;BME280;48698;45.736;13.926;2022-07-17T03:53:28;98038.06;;;21.51;100.00
52983;BME280;48698;45.736;13.926;2022-07-17T03:58:32;98043.00;;;21.46;100.00
52983;BME280;48698;45.736;13.926;2022-07-17T04:03:36;98042.72;;;21.49;100.00
52983;BME280;48698;45.736;13.926;2022-07-17T04:08:39;98028.06;;;21.42;100.00
52983;BME280;48698;45.736;13.926;2022-07-17T04:13:44;98040.91;;;21.59;100.00
52983;BME280;48698;45.736;13.926;2022-07-17T04:18:47;98050.75;;;21.60;100.00
52983;BME280;48698;45.736;13.926;2022-07-17T04:23:50;98049.69;;;21.51;100.00
52983;BME280;48698;45.736;13.926;2022-07-17T04:28:53;98035.72;;;21.37;100.00
52983;BME280;48698;45.736;13.926;2022-07-17T04:33:57;98057.78;;;21.42;100.00
52983;BME280;48698;45.736;13.926;2022-07-17T04:39:00;98025.75;;;21.28;100.00
52983;BME280;48698;45.736;13.926;2022-07-17T04:44:04;98010.19;;;20.99;100.00
52983;BME280;48698;45.736;13.926;2022-07-17T04:49:07;98017.41;;;21.10;100.00
52983;BME280;48698;45.736;13.926;2022-07-17T04:54:10;97984.34;;;20.76;100.00
52983;BME280;48698;45.736;13.926;2022-07-17T04:59:13;98074.97;;;21.10;100.00
52983;BME280;48698;45.736;13.926;2022-07-17T05:04:17;98062.19;;;21.12;100.00
52983;BME280;48698;45.736;13.926;2022-07-17T05:09:27;97971.06;;;20.63;100.00
52983;BME280;48698;45.736;13.926;2022-07-17T05:14:30;97979.13;;;20.54;100.00
52983;BME280;48698;45.736;13.926;2022-07-17T05:19:34;97992.44;;;20.76;100.00
52983;BME280;48698;45.736;13.926;2022-07-17T05:24:39;97927.25;;;20.30;100.00
52983;BME280;48698;45.736;13.926;2022-07-17T05:29:42;98097.13;;;21.35;100.00
52983;BME280;48698;45.736;13.926;2022-07-17T05:34:45;98036.75;;;20.94;100.00
52983;BME280;48698;45.736;13.926;2022-07-17T05:39:48;98121.09;;;21.49;100.00
52983;BME280;48698;45.736;13.926;2022-07-17T05:44:52;98084.59;;;21.24;100.00
52983;BME280;48698;45.736;13.926;2022-07-17T05:49:55;98023.50;;;20.91;100.00
52983;BME280;48698;45.736;13.926;2022-07-17T05:54:58;98115.94;;;21.67;100.00
52983;BME280;48698;45.736;13.926;2022-07-17T06:00:03;98133.44;;;21.72;100.00
52983;BME280;48698;45.736;13.926;2022-07-17T06:05:07;98115.56;;;21.81;100.00
52983;BME280;48698;45.736;13.926;2022-07-17T06:10:11;98068.94;;;21.58;100.00
52983;BME280;48698;45.736;13.926;2022-07-17T06:15:14;98005.94;;;21.18;100.00
52983;BME280;48698;45.736;13.926;2022-07-17T06:20:17;98109.03;;;21.83;100.00
52983;BME280;48698;45.736;13.926;2022-07-17T06:25:21;98068.13;;;21.67;100.00
52983;BME280;48698;45.736;13.926;2022-07-17T06:30:24;97987.50;;;21.32;100.00
52983;BME280;48698;45.736;13.926;2022-07-17T06:35:28;98134.25;;;22.33;100.00
52983;BME280;48698;45.736;13.926;2022-07-17T06:40:33;98086.34;;;22.14;100.00
52983;BME280;48698;45.736;13.926;2022-07-17T06:45:37;98068.56;;;22.12;100.00
52983;BME280;48698;45.736;13.926;2022-07-17T06:50:40;98016.03;;;22.24;100.00
52983;BME280;48698;45.736;13.926;2022-07-17T06:55:44;98051.75;;;22.08;100.00
52983;BME280;48698;45.736;13.926;2022-07-17T07:00:47;98094.94;;;22.58;100.00
52983;BME280;48698;45.736;13.926;2022-07-17T07:05:51;98053.94;;;22.34;100.00
52983;BME280;48698;45.736;13.926;2022-07-17T07:10:54;98129.03;;;23.08;100.00
52983;BME280;48698;45.736;13.926;2022-07-17T07:15:57;97992.41;;;22.36;100.00
52983;BME280;48698;45.736;13.926;2022-07-17T07:21:00;98079.03;;;22.93;100.00
52983;BME280;48698;45.736;13.926;2022-07-17T07:26:04;98004.03;;;22.65;100.00
52983;BME280;48698;45.736;13.926;2022-07-17T07:31:07;97975.84;;;22.58;100.00
52983;BME280;48698;45.736;13.926;2022-07-17T07:36:11;98103.19;;;23.70;100.00
52983;BME280;48698;45.736;13.926;2022-07-17T07:41:19;98070.66;;;23.43;100.00
52983;BME280;48698;45.736;13.926;2022-07-17T07:46:22;98153.72;;;24.08;100.00
52983;BME280;48698;45.736;13.926;2022-07-17T07:51:26;98168.78;;;24.30;100.00
52983;BME280;48698;45.736;13.926;2022-07-17T07:56:49;98103.53;;;23.94;100.00
52983;BME280;48698;45.736;13.926;2022-07-17T08:01:52;98186.41;;;24.43;100.00
52983;BME280;48698;45.736;13.926;2022-07-17T08:06:56;98178.63;;;24.85;100.00
52983;BME280;48698;45.736;13.926;2022-07-17T08:11:59;98117.00;;;24.41;100.00
52983;BME280;48698;45.736;13.926;2022-07-17T08:17:21;98168.56;;;24.68;100.00
52983;BME280;48698;45.736;13.926;2022-07-17T08:22:25;98211.84;;;24.97;100.00
52983;BME280;48698;45.736;13.926;2022-07-17T08:27:48;98097.38;;;24.47;100.00
52983;BME280;48698;45.736;13.926;2022-07-17T08:32:54;98192.19;;;25.03;100.00
52983;BME280;48698;45.736;13.926;2022-07-17T08:37:57;98223.88;;;25.30;100.00
52983;BME280;48698;45.736;13.926;2022-07-17T08:43:05;98194.41;;;25.43;100.00
52983;BME280;48698;45.736;13.926;2022-07-17T08:48:13;98089.56;;;24.61;100.00
52983;BME280;48698;45.736;13.926;2022-07-17T08:53:16;98168.50;;;25.31;100.00
52983;BME280;48698;45.736;13.926;2022-07-17T08:58:20;98110.97;;;25.00;100.00
52983;BME280;48698;45.736;13.926;2022-07-17T09:03:23;98237.63;;;25.63;100.00
52983;BME280;48698;45.736;13.926;2022-07-17T09:08:27;98113.69;;;25.17;100.00
52983;BME280;48698;45.736;13.926;2022-07-17T09:13:35;98173.66;;;25.59;100.00
52983;BME280;48698;45.736;13.926;2022-07-17T09:18:48;98251.91;;;26.35;100.00
52983;BME280;48698;45.736;13.926;2022-07-17T09:24:03;98262.38;;;26.55;100.00
52983;BME280;48698;45.736;13.926;2022-07-17T09:29:07;98117.38;;;26.19;100.00
52983;BME280;48698;45.736;13.926;2022-07-17T09:34:17;98260.06;;;27.10;100.00
52983;BME280;48698;45.736;13.926;2022-07-17T09:39:20;98262.97;;;27.17;100.00
52983;BME280;48698;45.736;13.926;2022-07-17T09:44:23;98087.94;;;26.81;100.00
52983;BME280;48698;45.736;13.926;2022-07-17T09:49:28;98216.56;;;26.93;100.00
52983;BME280;48698;45.736;13.926;2022-07-17T09:54:32;98241.72;;;27.77;100.00
52983;BME280;48698;45.736;13.926;2022-07-17T09:59:36;98142.47;;;27.13;100.00
52983;BME280;48698;45.736;13.926;2022-07-17T10:04:40;98147.28;;;26.61;100.00
52983;BME280;48698;45.736;13.926;2022-07-17T10:09:43;98259.44;;;27.49;100.00
52983;BME280;48698;45.736;13.926;2022-07-17T10:14:47;98161.53;;;27.38;100.00
52983;BME280;48698;45.736;13.926;2022-07-17T10:19:55;98261.13;;;27.98;100.00
52983;BME280;48698;45.736;13.926;2022-07-17T10:25:04;98260.81;;;28.72;96.81
52983;BME280;48698;45.736;13.926;2022-07-17T10:30:09;98259.06;;;29.10;93.67
52983;BME280;48698;45.736;13.926;2022-07-17T10:44:43;98233.94;;;29.15;89.77
52983;BME280;48698;45.736;13.926;2022-07-17T10:49:46;98254.75;;;28.93;95.21
52983;BME280;48698;45.736;13.926;2022-07-17T10:54:49;98094.75;;;28.13;93.50
52983;BME280;48698;45.736;13.926;2022-07-17T10:59:52;98243.88;;;29.61;89.78
52983;BME280;48698;45.736;13.926;2022-07-17T11:14:32;98230.19;;;28.85;90.92
52983;BME280;48698;45.736;13.926;2022-07-17T11:24:44;98160.81;;;28.86;94.02
52983;BME280;48698;45.736;13.926;2022-07-17T11:29:50;98199.13;;;28.78;93.43
52983;BME280;48698;45.736;13.926;2022-07-17T11:34:54;98150.38;;;28.51;95.98
52983;BME280;48698;45.736;13.926;2022-07-17T11:40:17;98013.88;;;27.65;97.02
52983;BME280;48698;45.736;13.926;2022-07-17T11:45:20;98222.00;;;28.77;95.90
52983;BME280;48698;45.736;13.926;2022-07-17T11:50:24;98183.09;;;28.67;98.35
52983;BME280;48698;45.736;13.926;2022-07-17T11:55:36;98205.66;;;29.00;98.11
52983;BME280;48698;45.736;13.926;2022-07-17T12:00:40;98193.56;;;29.17;99.21
52983;BME280;48698;45.736;13.926;2022-07-17T12:05:43;98189.94;;;28.63;98.06
52983;BME280;48698;45.736;13.926;2022-07-17T12:10:47;98019.03;;;27.91;97.80
52983;BME280;48698;45.736;13.926;2022-07-17T12:15:50;98173.84;;;28.76;100.00
52983;BME280;48698;45.736;13.926;2022-07-17T12:20:56;98193.41;;;29.41;98.01
52983;BME280;48698;45.736;13.926;2022-07-17T12:26:18;98147.66;;;28.82;97.63
52983;BME280;48698;45.736;13.926;2022-07-17T12:31:22;98177.72;;;29.12;98.39
52983;BME280;48698;45.736;13.926;2022-07-17T12:36:27;98171.25;;;29.51;96.16
52983;BME280;48698;45.736;13.926;2022-07-17T12:41:31;98177.47;;;29.45;93.88
52983;BME280;48698;45.736;13.926;2022-07-17T12:46:35;98170.84;;;29.16;96.75
52983;BME280;48698;45.736;13.926;2022-07-17T12:51:38;98176.50;;;29.15;94.93
52983;BME280;48698;45.736;13.926;2022-07-17T12:56:41;98135.31;;;29.16;94.06
52983;BME280;48698;45.736;13.926;2022-07-17T13:01:44;98170.44;;;29.28;93.09
52983;BME280;48698;45.736;13.926;2022-07-17T13:06:48;98108.13;;;28.69;92.45
52983;BME280;48698;45.736;13.926;2022-07-17T13:11:51;98172.00;;;29.45;94.63
52983;BME280;48698;45.736;13.926;2022-07-17T13:16:55;98099.66;;;29.24;94.08
52983;BME280;48698;45.736;13.926;2022-07-17T13:22:00;98120.38;;;29.79;93.75
52983;BME280;48698;45.736;13.926;2022-07-17T13:27:03;98095.19;;;29.32;87.25
52983;BME280;48698;45.736;13.926;2022-07-17T13:32:07;98143.63;;;29.60;90.39
52983;BME280;48698;45.736;13.926;2022-07-17T13:37:10;98120.66;;;29.84;89.68
52983;BME280;48698;45.736;13.926;2022-07-17T13:42:13;98091.25;;;29.49;88.34
52983;BME280;48698;45.736;13.926;2022-07-17T13:47:17;98123.66;;;29.74;89.25
52983;BME280;48698;45.736;13.926;2022-07-17T13:52:22;98145.44;;;30.05;88.96
52983;BME280;48698;45.736;13.926;2022-07-17T13:57:25;98113.78;;;30.17;84.51
52983;BME280;48698;45.736;13.926;2022-07-17T14:02:28;98104.28;;;30.49;89.73
52983;BME280;48698;45.736;13.926;2022-07-17T14:07:32;97919.97;;;29.10;84.51
52983;BME280;48698;45.736;13.926;2022-07-17T14:12:36;98027.84;;;29.60;85.21
52983;BME280;48698;45.736;13.926;2022-07-17T14:17:39;98115.78;;;30.09;86.62
52983;BME280;48698;45.736;13.926;2022-07-17T14:22:43;98034.06;;;29.68;87.14
52983;BME280;48698;45.736;13.926;2022-07-17T14:27:46;98109.41;;;30.38;84.89
52983;BME280;48698;45.736;13.926;2022-07-17T14:32:50;98020.47;;;29.90;82.56
52983;BME280;48698;45.736;13.926;2022-07-17T14:37:53;98045.91;;;29.84;83.86
52983;BME280;48698;45.736;13.926;2022-07-17T14:42:56;97943.22;;;29.29;84.47
52983;BME280;48698;45.736;13.926;2022-07-17T14:47:58;98084.88;;;30.00;83.13
52983;BME280;48698;45.736;13.926;2022-07-17T14:53:01;97922.31;;;28.99;79.52
52983;BME280;48698;45.736;13.926;2022-07-17T14:58:04;98087.88;;;30.20;79.78
52983;BME280;48698;45.736;13.926;2022-07-17T15:03:07;98090.88;;;30.40;78.10
52983;BME280;48698;45.736;13.926;2022-07-17T15:08:10;98030.09;;;30.00;79.92
52983;BME280;48698;45.736;13.926;2022-07-17T15:13:13;98015.78;;;29.69;81.03
52983;BME280;48698;45.736;13.926;2022-07-17T15:18:15;97991.41;;;29.45;79.91
52983;BME280;48698;45.736;13.926;2022-07-17T15:23:18;97926.91;;;28.84;81.57
52983;BME280;48698;45.736;13.926;2022-07-17T15:28:21;98090.31;;;30.30;76.19
52983;BME280;48698;45.736;13.926;2022-07-17T15:33:28;97907.31;;;28.95;76.71
52983;BME280;48698;45.736;13.926;2022-07-17T15:38:32;98074.47;;;29.81;79.07
52983;BME280;48698;45.736;13.926;2022-07-17T15:43:35;98077.13;;;29.74;79.34
52983;BME280;48698;45.736;13.926;2022-07-17T15:48:38;98078.16;;;29.73;80.86
52983;BME280;48698;45.736;13.926;2022-07-17T15:53:42;98012.19;;;29.39;80.22
52983;BME280;48698;45.736;13.926;2022-07-17T15:58:45;98074.00;;;30.07;79.47
52983;BME280;48698;45.736;13.926;2022-07-17T16:03:48;98066.59;;;29.86;79.99
52983;BME280;48698;45.736;13.926;2022-07-17T16:09:02;97987.63;;;29.31;79.80
52983;BME280;48698;45.736;13.926;2022-07-17T16:14:06;98043.22;;;29.61;80.15
52983;BME280;48698;45.736;13.926;2022-07-17T16:19:09;98052.22;;;29.69;79.56
52983;BME280;48698;45.736;13.926;2022-07-17T16:24:14;97942.31;;;28.99;82.62
52983;BME280;48698;45.736;13.926;2022-07-17T16:29:17;98059.94;;;29.66;81.59
52983;BME280;48698;45.736;13.926;2022-07-17T16:34:20;98070.91;;;29.66;82.80
52983;BME280;48698;45.736;13.926;2022-07-17T16:39:24;98005.28;;;29.29;81.54
52983;BME280;48698;45.736;13.926;2022-07-17T16:44:27;97996.25;;;29.05;80.30
52983;BME280;48698;45.736;13.926;2022-07-17T16:49:30;97874.06;;;28.16;84.29
52983;BME280;48698;45.736;13.926;2022-07-17T16:54:34;97875.31;;;27.83;81.85
52983;BME280;48698;45.736;13.926;2022-07-17T16:59:38;98050.19;;;29.11;85.01
52983;BME280;48698;45.736;13.926;2022-07-17T17:04:41;98069.81;;;29.15;85.28
52983;BME280;48698;45.736;13.926;2022-07-17T17:09:44;98076.41;;;29.06;85.24
52983;BME280;48698;45.736;13.926;2022-07-17T17:14:47;97988.75;;;28.62;87.06
52983;BME280;48698;45.736;13.926;2022-07-17T17:19:50;98068.72;;;28.87;86.45
52983;BME280;48698;45.736;13.926;2022-07-17T17:24:53;98050.34;;;28.50;87.28
52983;BME280;48698;45.736;13.926;2022-07-17T17:29:56;98068.53;;;28.57;89.74
52983;BME280;48698;45.736;13.926;2022-07-17T17:34:59;98071.47;;;28.56;90.50
52983;BME280;48698;45.736;13.926;2022-07-17T17:40:04;98081.63;;;28.39;93.69
52983;BME280;48698;45.736;13.926;2022-07-17T17:45:07;98080.41;;;28.11;94.26
52983;BME280;48698;45.736;13.926;2022-07-17T17:50:11;98060.09;;;28.05;95.57
52983;BME280;48698;45.736;13.926;2022-07-17T17:55:15;98047.88;;;27.93;96.59
52983;BME280;48698;45.736;13.926;2022-07-17T18:00:18;98086.41;;;27.98;98.62
52983;BME280;48698;45.736;13.926;2022-07-17T18:05:21;98039.84;;;27.37;99.80
52983;BME280;48698;45.736;13.926;2022-07-17T18:10:24;98097.09;;;27.61;100.00
52983;BME280;48698;45.736;13.926;2022-07-17T18:15:28;98089.44;;;27.32;100.00
52983;BME280;48698;45.736;13.926;2022-07-17T18:20:32;98007.03;;;26.57;100.00
52983;BME280;48698;45.736;13.926;2022-07-17T18:25:36;98108.91;;;26.97;100.00
52983;BME280;48698;45.736;13.926;2022-07-17T18:30:40;98125.22;;;26.89;100.00
52983;BME280;48698;45.736;13.926;2022-07-17T18:35:44;98117.34;;;26.69;100.00
52983;BME280;48698;45.736;13.926;2022-07-17T18:40:48;97946.28;;;25.41;100.00
52983;BME280;48698;45.736;13.926;2022-07-17T18:45:54;98125.59;;;26.28;100.00
52983;BME280;48698;45.736;13.926;2022-07-17T18:50:57;98012.88;;;25.37;100.00
52983;BME280;48698;45.736;13.926;2022-07-17T18:56:00;98106.66;;;25.84;100.00
52983;BME280;48698;45.736;13.926;2022-07-17T19:01:04;98116.75;;;25.66;100.00
52983;BME280;48698;45.736;13.926;2022-07-17T19:06:07;98161.34;;;25.73;100.00
52983;BME280;48698;45.736;13.926;2022-07-17T19:11:12;98112.94;;;25.51;100.00
52983;BME280;48698;45.736;13.926;2022-07-17T19:16:16;98151.38;;;25.56;100.00
52983;BME280;48698;45.736;13.926;2022-07-17T19:21:19;98159.78;;;25.45;100.00
52983;BME280;48698;45.736;13.926;2022-07-17T19:26:22;98097.44;;;24.82;100.00
52983;BME280;48698;45.736;13.926;2022-07-17T19:31:26;98145.75;;;24.96;100.00
52983;BME280;48698;45.736;13.926;2022-07-17T19:36:31;98170.63;;;25.01;100.00
52983;BME280;48698;45.736;13.926;2022-07-17T19:41:34;98083.56;;;24.23;100.00
52983;BME280;48698;45.736;13.926;2022-07-17T19:46:37;98081.13;;;24.19;100.00
52983;BME280;48698;45.736;13.926;2022-07-17T19:51:41;98163.31;;;24.57;100.00
52983;BME280;48698;45.736;13.926;2022-07-17T19:56:50;98216.16;;;24.90;100.00
52983;BME280;48698;45.736;13.926;2022-07-17T20:01:53;98211.09;;;24.77;100.00
52983;BME280;48698;45.736;13.926;2022-07-17T20:06:57;98230.28;;;24.76;100.00
52983;BME280;48698;45.736;13.926;2022-07-17T20:12:00;98214.78;;;24.58;100.00
52983;BME280;48698;45.736;13.926;2022-07-17T20:17:04;98233.25;;;24.55;100.00
52983;BME280;48698;45.736;13.926;2022-07-17T20:22:07;98235.41;;;24.51;100.00
52983;BME280;48698;45.736;13.926;2022-07-17T20:27:10;98242.75;;;24.41;100.00
52983;BME280;48698;45.736;13.926;2022-07-17T20:32:13;98234.22;;;24.27;100.00
52983;BME280;48698;45.736;13.926;2022-07-17T20:37:16;98243.69;;;24.23;100.00
52983;BME280;48698;45.736;13.926;2022-07-17T20:42:20;98265.66;;;24.19;100.00
52983;BME280;48698;45.736;13.926;2022-07-17T20:47:23;98174.59;;;23.61;100.00
52983;BME280;48698;45.736;13.926;2022-07-17T20:52:26;98252.63;;;23.86;100.00
52983;BME280;48698;45.736;13.926;2022-07-17T20:57:29;98259.16;;;23.93;100.00
52983;BME280;48698;45.736;13.926;2022-07-17T21:02:33;98238.78;;;23.70;100.00
52983;BME280;48698;45.736;13.926;2022-07-17T21:07:37;98228.81;;;23.61;100.00
52983;BME280;48698;45.736;13.926;2022-07-17T21:12:40;98037.13;;;22.59;100.00
52983;BME280;48698;45.736;13.926;2022-07-17T21:17:44;98269.47;;;23.80;100.00
52983;BME280;48698;45.736;13.926;2022-07-17T21:22:47;98214.13;;;23.35;100.00
52983;BME280;48698;45.736;13.926;2022-07-17T21:27:50;98185.22;;;23.06;100.00
52983;BME280;48698;45.736;13.926;2022-07-17T21:32:54;98234.28;;;23.42;100.00
52983;BME280;48698;45.736;13.926;2022-07-17T21:37:57;98161.13;;;23.03;100.00
52983;BME280;48698;45.736;13.926;2022-07-17T21:43:00;98051.47;;;22.21;100.00
52983;BME280;48698;45.736;13.926;2022-07-17T21:48:03;98255.09;;;23.51;100.00
52983;BME280;48698;45.736;13.926;2022-07-17T21:53:07;98259.09;;;23.47;100.00
52983;BME280;48698;45.736;13.926;2022-07-17T21:58:10;98207.59;;;23.08;100.00
52983;BME280;48698;45.736;13.926;2022-07-17T22:03:14;98253.25;;;23.42;100.00
52983;BME280;48698;45.736;13.926;2022-07-17T22:08:17;98091.53;;;22.37;100.00
52983;BME280;48698;45.736;13.926;2022-07-17T22:13:21;98256.09;;;23.50;100.00
52983;BME280;48698;45.736;13.926;2022-07-17T22:18:24;98152.69;;;22.87;100.00
52983;BME280;48698;45.736;13.926;2022-07-17T22:23:27;98222.13;;;23.17;100.00
52983;BME280;48698;45.736;13.926;2022-07-17T22:28:31;98144.81;;;22.65;100.00
52983;BME280;48698;45.736;13.926;2022-07-17T22:33:35;98267.78;;;23.41;100.00
52983;BME280;48698;45.736;13.926;2022-07-17T22:38:39;98210.31;;;23.08;100.00
52983;BME280;48698;45.736;13.926;2022-07-17T22:43:42;98072.59;;;22.37;100.00
52983;BME280;48698;45.736;13.926;2022-07-17T22:48:47;98251.78;;;23.38;100.00
52983;BME280;48698;45.736;13.926;2022-07-17T22:53:50;98135.41;;;22.59;100.00
52983;BME280;48698;45.736;13.926;2022-07-17T22:58:56;98136.69;;;22.65;100.00
52983;BME280;48698;45.736;13.926;2022-07-17T23:04:00;98227.53;;;23.17;100.00
52983;BME280;48698;45.736;13.926;2022-07-17T23:09:06;98090.78;;;22.15;100.00
52983;BME280;48698;45.736;13.926;2022-07-17T23:14:10;98207.13;;;22.84;100.00
52983;BME280;48698;45.736;13.926;2022-07-17T23:19:13;98225.81;;;22.97;100.00
52983;BME280;48698;45.736;13.926;2022-07-17T23:24:17;98258.91;;;23.00;100.00
52983;BME280;48698;45.736;13.926;2022-07-17T23:29:21;98100.00;;;22.03;100.00
52983;BME280;48698;45.736;13.926;2022-07-17T23:34:24;98255.63;;;22.97;100.00
52983;BME280;48698;45.736;13.926;2022-07-17T23:39:28;98140.53;;;22.34;100.00
52983;BME280;48698;45.736;13.926;2022-07-17T23:44:31;98101.28;;;21.99;100.00
52983;BME280;48698;45.736;13.926;2022-07-17T23:49:35;98240.22;;;22.88;100.00
52983;BME280;48698;45.736;13.926;2022-07-17T23:54:38;98247.75;;;22.84;100.00
52983;BME280;48698;45.736;13.926;2022-07-17T23:59:42;98231.59;;;22.63;100.00
